sensor_id;sensor_type;location;lat;lon;timestamp;P1;durP1;ratioP1;P2;durP2;ratioP2
38785;SDS011;24535;45.508;12.252;2023-12-29T00:02:01;108.90;;;85.03;;
38785;SDS011;24535;45.508;12.252;2023-12-29T00:25:00;103.15;;;84.38;;
38785;SDS011;24535;45.508;12.252;2023-12-29T00:27:39;105.28;;;82.35;;
38785;SDS011;24535;45.508;12.252;2023-12-29T00:30:04;110.10;;;86.93;;
38785;SDS011;24535;45.508;12.252;2023-12-29T00:32:30;111.07;;;87.90;;
38785;SDS011;24535;45.508;12.252;2023-12-29T00:42:52;111.30;;;84.60;;
38785;SDS011;24535;45.508;12.252;2023-12-29T00:45:23;116.93;;;87.72;;
38785;SDS011;24535;45.508;12.252;2023-12-29T00:47:49;114.28;;;86.13;;
38785;SDS011;24535;45.508;12.252;2023-12-29T00:50:16;112.35;;;85.70;;
38785;SDS011;24535;45.508;12.252;2023-12-29T00:52:42;111.75;;;84.80;;
38785;SDS011;24535;45.508;12.252;2023-12-29T01:03:43;115.85;;;85.78;;
38785;SDS011;24535;45.508;12.252;2023-12-29T01:06:23;109.55;;;84.90;;
38785;SDS011;24535;45.508;12.252;2023-12-29T01:08:48;114.65;;;89.05;;
38785;SDS011;24535;45.508;12.252;2023-12-29T01:14:05;120.35;;;89.55;;
38785;SDS011;24535;45.508;12.252;2023-12-29T01:22:39;110.70;;;88.97;;
38785;SDS011;24535;45.508;12.252;2023-12-29T01:25:05;108.78;;;84.18;;
38785;SDS011;24535;45.508;12.252;2023-12-29T01:27:41;106.13;;;83.05;;
38785;SDS011;24535;45.508;12.252;2023-12-29T01:30:06;107.65;;;82.80;;
38785;SDS011;24535;45.508;12.252;2023-12-29T01:32:32;116.28;;;87.07;;
38785;SDS011;24535;45.508;12.252;2023-12-29T01:34:58;114.53;;;85.50;;
38785;SDS011;24535;45.508;12.252;2023-12-29T01:37:23;122.15;;;88.75;;
38785;SDS011;24535;45.508;12.252;2023-12-29T01:39:49;115.68;;;87.38;;
38785;SDS011;24535;45.508;12.252;2023-12-29T01:42:14;112.50;;;85.30;;
38785;SDS011;24535;45.508;12.252;2023-12-29T01:44:40;113.90;;;87.63;;
38785;SDS011;24535;45.508;12.252;2023-12-29T01:47:10;114.15;;;87.30;;
38785;SDS011;24535;45.508;12.252;2023-12-29T01:49:51;110.28;;;86.35;;
38785;SDS011;24535;45.508;12.252;2023-12-29T01:52:17;113.97;;;88.30;;
38785;SDS011;24535;45.508;12.252;2023-12-29T01:54:43;112.28;;;83.63;;
38785;SDS011;24535;45.508;12.252;2023-12-29T01:57:11;112.22;;;84.22;;
38785;SDS011;24535;45.508;12.252;2023-12-29T01:59:40;108.15;;;81.80;;
38785;SDS011;24535;45.508;12.252;2023-12-29T02:02:06;106.03;;;82.13;;
38785;SDS011;24535;45.508;12.252;2023-12-29T02:04:32;99.18;;;78.97;;
38785;SDS011;24535;45.508;12.252;2023-12-29T02:06:59;99.18;;;80.13;;
38785;SDS011;24535;45.508;12.252;2023-12-29T02:11:59;96.10;;;75.43;;
38785;SDS011;24535;45.508;12.252;2023-12-29T02:14:27;99.40;;;80.28;;
38785;SDS011;24535;45.508;12.252;2023-12-29T02:17:01;92.15;;;75.13;;
38785;SDS011;24535;45.508;12.252;2023-12-29T02:19:52;90.97;;;77.63;;
38785;SDS011;24535;45.508;12.252;2023-12-29T02:22:18;99.22;;;77.15;;
38785;SDS011;24535;45.508;12.252;2023-12-29T02:24:54;97.38;;;78.93;;
38785;SDS011;24535;45.508;12.252;2023-12-29T02:33:36;91.45;;;75.15;;
38785;SDS011;24535;45.508;12.252;2023-12-29T02:36:11;89.32;;;75.07;;
38785;SDS011;24535;45.508;12.252;2023-12-29T02:44:28;92.78;;;75.85;;
38785;SDS011;24535;45.508;12.252;2023-12-29T02:46:53;84.93;;;73.00;;
38785;SDS011;24535;45.508;12.252;2023-12-29T02:49:26;95.13;;;77.50;;
38785;SDS011;24535;45.508;12.252;2023-12-29T02:54:26;92.03;;;73.90;;
38785;SDS011;24535;45.508;12.252;2023-12-29T02:57:04;92.47;;;74.60;;
38785;SDS011;24535;45.508;12.252;2023-12-29T03:07:18;91.22;;;73.65;;
38785;SDS011;24535;45.508;12.252;2023-12-29T03:09:50;87.77;;;72.13;;
38785;SDS011;24535;45.508;12.252;2023-12-29T03:12:15;97.43;;;74.05;;
38785;SDS011;24535;45.508;12.252;2023-12-29T03:18:16;89.82;;;71.85;;
38785;SDS011;24535;45.508;12.252;2023-12-29T03:20:42;84.60;;;68.88;;
38785;SDS011;24535;45.508;12.252;2023-12-29T03:23:10;89.47;;;68.32;;
38785;SDS011;24535;45.508;12.252;2023-12-29T03:25:45;78.63;;;66.57;;
38785;SDS011;24535;45.508;12.252;2023-12-29T03:28:11;88.03;;;70.35;;
38785;SDS011;24535;45.508;12.252;2023-12-29T03:30:36;88.68;;;69.93;;
38785;SDS011;24535;45.508;12.252;2023-12-29T03:38:59;77.63;;;62.80;;
38785;SDS011;24535;45.508;12.252;2023-12-29T03:41:24;78.22;;;61.95;;
38785;SDS011;24535;45.508;12.252;2023-12-29T03:44:01;84.10;;;64.93;;
38785;SDS011;24535;45.508;12.252;2023-12-29T03:46:26;80.63;;;63.50;;
38785;SDS011;24535;45.508;12.252;2023-12-29T03:54:49;81.90;;;61.70;;
38785;SDS011;24535;45.508;12.252;2023-12-29T03:57:14;72.97;;;60.58;;
38785;SDS011;24535;45.508;12.252;2023-12-29T03:59:40;74.28;;;59.28;;
38785;SDS011;24535;45.508;12.252;2023-12-29T04:02:05;74.43;;;61.05;;
38785;SDS011;24535;45.508;12.252;2023-12-29T04:04:31;77.47;;;60.17;;
38785;SDS011;24535;45.508;12.252;2023-12-29T04:07:06;77.00;;;59.05;;
38785;SDS011;24535;45.508;12.252;2023-12-29T04:12:23;70.05;;;57.85;;
38785;SDS011;24535;45.508;12.252;2023-12-29T04:19:58;78.22;;;57.53;;
38785;SDS011;24535;45.508;12.252;2023-12-29T04:22:23;72.82;;;58.28;;
38785;SDS011;24535;45.508;12.252;2023-12-29T04:24:49;74.00;;;56.30;;
38785;SDS011;24535;45.508;12.252;2023-12-29T04:27:17;72.18;;;55.88;;
38785;SDS011;24535;45.508;12.252;2023-12-29T04:38:17;72.80;;;55.90;;
38785;SDS011;24535;45.508;12.252;2023-12-29T04:46:44;63.47;;;53.13;;
38785;SDS011;24535;45.508;12.252;2023-12-29T04:49:20;72.50;;;55.10;;
38785;SDS011;24535;45.508;12.252;2023-12-29T04:51:45;65.65;;;52.83;;
38785;SDS011;24535;45.508;12.252;2023-12-29T04:54:15;70.95;;;54.67;;
38785;SDS011;24535;45.508;12.252;2023-12-29T04:56:47;68.05;;;51.05;;
38785;SDS011;24535;45.508;12.252;2023-12-29T04:59:22;63.63;;;51.95;;
38785;SDS011;24535;45.508;12.252;2023-12-29T05:01:47;58.55;;;48.03;;
38785;SDS011;24535;45.508;12.252;2023-12-29T05:04:19;58.58;;;47.95;;
38785;SDS011;24535;45.508;12.252;2023-12-29T05:06:51;58.50;;;47.25;;
38785;SDS011;24535;45.508;12.252;2023-12-29T05:09:16;59.33;;;45.47;;
38785;SDS011;24535;45.508;12.252;2023-12-29T05:11:45;57.67;;;45.58;;
38785;SDS011;24535;45.508;12.252;2023-12-29T05:14:10;57.90;;;44.08;;
38785;SDS011;24535;45.508;12.252;2023-12-29T05:16:36;53.15;;;42.90;;
38785;SDS011;24535;45.508;12.252;2023-12-29T05:19:12;53.63;;;42.63;;
38785;SDS011;24535;45.508;12.252;2023-12-29T05:21:44;49.53;;;41.20;;
38785;SDS011;24535;45.508;12.252;2023-12-29T05:24:09;53.58;;;42.83;;
38785;SDS011;24535;45.508;12.252;2023-12-29T05:26:36;53.83;;;42.03;;
38785;SDS011;24535;45.508;12.252;2023-12-29T05:29:02;51.38;;;42.05;;
38785;SDS011;24535;45.508;12.252;2023-12-29T05:31:33;50.08;;;40.58;;
38785;SDS011;24535;45.508;12.252;2023-12-29T05:33:59;47.63;;;40.30;;
38785;SDS011;24535;45.508;12.252;2023-12-29T05:36:27;53.45;;;40.88;;
38785;SDS011;24535;45.508;12.252;2023-12-29T05:38:53;52.33;;;40.47;;
38785;SDS011;24535;45.508;12.252;2023-12-29T05:41:20;51.08;;;40.30;;
38785;SDS011;24535;45.508;12.252;2023-12-29T05:43:46;45.92;;;39.30;;
38785;SDS011;24535;45.508;12.252;2023-12-29T05:46:24;47.83;;;38.55;;
38785;SDS011;24535;45.508;12.252;2023-12-29T05:48:49;47.13;;;39.97;;
38785;SDS011;24535;45.508;12.252;2023-12-29T05:53:55;45.42;;;37.53;;
38785;SDS011;24535;45.508;12.252;2023-12-29T05:56:30;43.08;;;36.85;;
38785;SDS011;24535;45.508;12.252;2023-12-29T05:58:56;43.80;;;37.40;;
38785;SDS011;24535;45.508;12.252;2023-12-29T06:09:10;46.60;;;35.35;;
38785;SDS011;24535;45.508;12.252;2023-12-29T06:14:36;43.70;;;34.75;;
38785;SDS011;24535;45.508;12.252;2023-12-29T06:25:46;40.72;;;34.45;;
38785;SDS011;24535;45.508;12.252;2023-12-29T06:28:12;43.53;;;35.88;;
38785;SDS011;24535;45.508;12.252;2023-12-29T06:30:59;44.53;;;35.78;;
38785;SDS011;24535;45.508;12.252;2023-12-29T06:36:14;43.80;;;34.53;;
38785;SDS011;24535;45.508;12.252;2023-12-29T06:45:27;42.42;;;34.42;;
38785;SDS011;24535;45.508;12.252;2023-12-29T06:50:46;42.53;;;34.33;;
38785;SDS011;24535;45.508;12.252;2023-12-29T06:53:11;37.58;;;31.92;;
38785;SDS011;24535;45.508;12.252;2023-12-29T07:00:40;43.50;;;32.15;;
38785;SDS011;24535;45.508;12.252;2023-12-29T07:03:16;39.65;;;31.05;;
38785;SDS011;24535;45.508;12.252;2023-12-29T07:05:41;36.63;;;29.98;;
38785;SDS011;24535;45.508;12.252;2023-12-29T07:10:54;37.25;;;30.00;;
38785;SDS011;24535;45.508;12.252;2023-12-29T07:13:26;39.25;;;30.42;;
38785;SDS011;24535;45.508;12.252;2023-12-29T07:15:53;34.45;;;29.38;;
38785;SDS011;24535;45.508;12.252;2023-12-29T07:18:19;39.13;;;31.02;;
38785;SDS011;24535;45.508;12.252;2023-12-29T07:20:45;36.13;;;28.40;;
38785;SDS011;24535;45.508;12.252;2023-12-29T07:23:10;36.92;;;28.17;;
38785;SDS011;24535;45.508;12.252;2023-12-29T07:25:42;41.17;;;28.52;;
38785;SDS011;24535;45.508;12.252;2023-12-29T07:28:09;34.17;;;27.92;;
38785;SDS011;24535;45.508;12.252;2023-12-29T07:33:19;36.97;;;27.45;;
38785;SDS011;24535;45.508;12.252;2023-12-29T07:35:44;32.53;;;26.92;;
38785;SDS011;24535;45.508;12.252;2023-12-29T07:49:43;32.97;;;25.33;;
38785;SDS011;24535;45.508;12.252;2023-12-29T07:57:40;30.38;;;24.35;;
38785;SDS011;24535;45.508;12.252;2023-12-29T08:00:06;34.30;;;24.65;;
38785;SDS011;24535;45.508;12.252;2023-12-29T08:05:44;30.52;;;24.42;;
38785;SDS011;24535;45.508;12.252;2023-12-29T08:08:11;32.28;;;23.55;;
38785;SDS011;24535;45.508;12.252;2023-12-29T08:10:39;33.70;;;24.30;;
38785;SDS011;24535;45.508;12.252;2023-12-29T08:13:05;33.88;;;25.52;;
38785;SDS011;24535;45.508;12.252;2023-12-29T08:15:34;32.90;;;25.48;;
38785;SDS011;24535;45.508;12.252;2023-12-29T08:17:59;32.97;;;24.77;;
38785;SDS011;24535;45.508;12.252;2023-12-29T08:20:24;31.02;;;24.85;;
38785;SDS011;24535;45.508;12.252;2023-12-29T08:22:50;34.85;;;25.23;;
38785;SDS011;24535;45.508;12.252;2023-12-29T08:25:22;35.60;;;25.83;;
38785;SDS011;24535;45.508;12.252;2023-12-29T08:27:48;36.35;;;24.20;;
38785;SDS011;24535;45.508;12.252;2023-12-29T08:30:13;34.70;;;27.38;;
38785;SDS011;24535;45.508;12.252;2023-12-29T08:32:48;38.25;;;27.60;;
38785;SDS011;24535;45.508;12.252;2023-12-29T08:43:48;32.67;;;27.30;;
38785;SDS011;24535;45.508;12.252;2023-12-29T08:46:14;34.95;;;26.10;;
38785;SDS011;24535;45.508;12.252;2023-12-29T08:48:39;33.30;;;25.90;;
38785;SDS011;24535;45.508;12.252;2023-12-29T08:51:05;31.17;;;26.83;;
38785;SDS011;24535;45.508;12.252;2023-12-29T08:53:31;32.17;;;26.17;;
38785;SDS011;24535;45.508;12.252;2023-12-29T08:56:03;36.08;;;27.83;;
38785;SDS011;24535;45.508;12.252;2023-12-29T08:58:29;32.67;;;26.13;;
38785;SDS011;24535;45.508;12.252;2023-12-29T09:00:55;34.72;;;26.52;;
38785;SDS011;24535;45.508;12.252;2023-12-29T09:03:21;36.60;;;27.83;;
38785;SDS011;24535;45.508;12.252;2023-12-29T09:06:01;35.13;;;25.50;;
38785;SDS011;24535;45.508;12.252;2023-12-29T09:08:30;32.63;;;26.67;;
38785;SDS011;24535;45.508;12.252;2023-12-29T09:10:59;34.15;;;26.70;;
38785;SDS011;24535;45.508;12.252;2023-12-29T09:13:24;35.90;;;27.10;;
38785;SDS011;24535;45.508;12.252;2023-12-29T09:15:52;32.53;;;26.35;;
38785;SDS011;24535;45.508;12.252;2023-12-29T09:18:24;38.47;;;27.23;;
38785;SDS011;24535;45.508;12.252;2023-12-29T09:20:59;35.35;;;27.73;;
38785;SDS011;24535;45.508;12.252;2023-12-29T09:23:27;35.40;;;27.08;;
38785;SDS011;24535;45.508;12.252;2023-12-29T09:25:55;32.65;;;27.17;;
38785;SDS011;24535;45.508;12.252;2023-12-29T09:28:26;33.90;;;28.15;;
38785;SDS011;24535;45.508;12.252;2023-12-29T09:30:52;36.03;;;28.67;;
38785;SDS011;24535;45.508;12.252;2023-12-29T09:33:20;35.97;;;27.38;;
38785;SDS011;24535;45.508;12.252;2023-12-29T09:35:51;34.83;;;27.85;;
38785;SDS011;24535;45.508;12.252;2023-12-29T09:38:22;34.13;;;27.10;;
38785;SDS011;24535;45.508;12.252;2023-12-29T09:40:48;33.00;;;26.85;;
38785;SDS011;24535;45.508;12.252;2023-12-29T09:43:14;39.28;;;26.98;;
38785;SDS011;24535;45.508;12.252;2023-12-29T09:45:39;33.72;;;27.77;;
38785;SDS011;24535;45.508;12.252;2023-12-29T09:48:21;32.53;;;27.42;;
38785;SDS011;24535;45.508;12.252;2023-12-29T09:50:51;38.65;;;27.88;;
38785;SDS011;24535;45.508;12.252;2023-12-29T09:53:24;36.13;;;27.92;;
38785;SDS011;24535;45.508;12.252;2023-12-29T09:55:53;36.83;;;28.60;;
38785;SDS011;24535;45.508;12.252;2023-12-29T09:58:21;33.78;;;27.48;;
38785;SDS011;24535;45.508;12.252;2023-12-29T10:03:31;36.83;;;29.17;;
38785;SDS011;24535;45.508;12.252;2023-12-29T10:06:03;35.05;;;27.75;;
38785;SDS011;24535;45.508;12.252;2023-12-29T10:08:37;36.05;;;27.30;;
38785;SDS011;24535;45.508;12.252;2023-12-29T10:11:09;34.75;;;27.75;;
38785;SDS011;24535;45.508;12.252;2023-12-29T10:13:36;34.55;;;27.98;;
38785;SDS011;24535;45.508;12.252;2023-12-29T10:16:08;38.50;;;29.65;;
38785;SDS011;24535;45.508;12.252;2023-12-29T10:21:47;38.35;;;28.15;;
38785;SDS011;24535;45.508;12.252;2023-12-29T10:24:24;34.00;;;27.90;;
38785;SDS011;24535;45.508;12.252;2023-12-29T10:27:02;33.30;;;27.75;;
38785;SDS011;24535;45.508;12.252;2023-12-29T10:29:30;31.98;;;26.75;;
38785;SDS011;24535;45.508;12.252;2023-12-29T10:32:07;33.28;;;26.05;;
38785;SDS011;24535;45.508;12.252;2023-12-29T10:34:37;32.10;;;27.00;;
38785;SDS011;24535;45.508;12.252;2023-12-29T10:37:09;31.67;;;26.38;;
38785;SDS011;24535;45.508;12.252;2023-12-29T10:39:54;33.10;;;27.63;;
38785;SDS011;24535;45.508;12.252;2023-12-29T10:42:27;31.48;;;26.42;;
38785;SDS011;24535;45.508;12.252;2023-12-29T10:47:51;31.25;;;26.30;;
38785;SDS011;24535;45.508;12.252;2023-12-29T10:50:18;36.75;;;27.30;;
38785;SDS011;24535;45.508;12.252;2023-12-29T10:52:43;36.75;;;27.17;;
38785;SDS011;24535;45.508;12.252;2023-12-29T10:55:09;37.78;;;28.23;;
38785;SDS011;24535;45.508;12.252;2023-12-29T10:57:46;34.90;;;25.58;;
38785;SDS011;24535;45.508;12.252;2023-12-29T11:00:45;36.90;;;28.10;;
38785;SDS011;24535;45.508;12.252;2023-12-29T11:09:30;36.10;;;29.90;;
38785;SDS011;24535;45.508;12.252;2023-12-29T11:12:07;36.47;;;28.88;;
38785;SDS011;24535;45.508;12.252;2023-12-29T11:14:34;38.75;;;29.02;;
38785;SDS011;24535;45.508;12.252;2023-12-29T11:17:20;37.17;;;28.30;;
38785;SDS011;24535;45.508;12.252;2023-12-29T11:19:47;38.35;;;28.40;;
38785;SDS011;24535;45.508;12.252;2023-12-29T11:25:19;38.55;;;29.08;;
38785;SDS011;24535;45.508;12.252;2023-12-29T11:27:47;35.88;;;29.05;;
38785;SDS011;24535;45.508;12.252;2023-12-29T11:30:14;40.05;;;29.08;;
38785;SDS011;24535;45.508;12.252;2023-12-29T11:32:59;34.40;;;29.05;;
38785;SDS011;24535;45.508;12.252;2023-12-29T11:35:34;40.03;;;31.30;;
38785;SDS011;24535;45.508;12.252;2023-12-29T11:42:05;39.58;;;30.60;;
38785;SDS011;24535;45.508;12.252;2023-12-29T11:45:23;41.42;;;31.95;;
38785;SDS011;24535;45.508;12.252;2023-12-29T11:59:51;36.78;;;29.80;;
38785;SDS011;24535;45.508;12.252;2023-12-29T12:02:36;36.72;;;28.08;;
38785;SDS011;24535;45.508;12.252;2023-12-29T12:05:02;36.45;;;28.27;;
38785;SDS011;24535;45.508;12.252;2023-12-29T12:13:37;35.40;;;28.65;;
38785;SDS011;24535;45.508;12.252;2023-12-29T12:19:39;36.40;;;27.10;;
38785;SDS011;24535;45.508;12.252;2023-12-29T12:22:23;35.58;;;28.33;;
38785;SDS011;24535;45.508;12.252;2023-12-29T12:25:08;36.35;;;27.27;;
38785;SDS011;24535;45.508;12.252;2023-12-29T12:27:37;35.28;;;27.98;;
38785;SDS011;24535;45.508;12.252;2023-12-29T12:30:12;37.58;;;29.73;;
38785;SDS011;24535;45.508;12.252;2023-12-29T12:32:46;33.13;;;27.33;;
38785;SDS011;24535;45.508;12.252;2023-12-29T12:35:21;34.17;;;28.00;;
38785;SDS011;24535;45.508;12.252;2023-12-29T12:37:47;39.95;;;29.20;;
38785;SDS011;24535;45.508;12.252;2023-12-29T12:40:24;38.95;;;29.13;;
38785;SDS011;24535;45.508;12.252;2023-12-29T12:42:51;35.65;;;26.98;;
38785;SDS011;24535;45.508;12.252;2023-12-29T12:45:17;37.53;;;27.58;;
38785;SDS011;24535;45.508;12.252;2023-12-29T12:47:51;36.83;;;28.15;;
38785;SDS011;24535;45.508;12.252;2023-12-29T12:50:20;34.17;;;25.90;;
38785;SDS011;24535;45.508;12.252;2023-12-29T12:52:46;34.30;;;26.70;;
38785;SDS011;24535;45.508;12.252;2023-12-29T12:55:14;36.63;;;28.58;;
38785;SDS011;24535;45.508;12.252;2023-12-29T13:00:27;35.38;;;27.42;;
38785;SDS011;24535;45.508;12.252;2023-12-29T13:03:15;39.03;;;29.15;;
38785;SDS011;24535;45.508;12.252;2023-12-29T13:06:14;38.00;;;27.75;;
38785;SDS011;24535;45.508;12.252;2023-12-29T13:09:09;34.78;;;26.77;;
38785;SDS011;24535;45.508;12.252;2023-12-29T13:11:41;39.45;;;27.10;;
38785;SDS011;24535;45.508;12.252;2023-12-29T13:14:06;42.00;;;27.93;;
38785;SDS011;24535;45.508;12.252;2023-12-29T13:16:33;35.75;;;28.40;;
38785;SDS011;24535;45.508;12.252;2023-12-29T13:19:22;37.60;;;30.15;;
38785;SDS011;24535;45.508;12.252;2023-12-29T13:21:53;35.40;;;28.10;;
38785;SDS011;24535;45.508;12.252;2023-12-29T13:24:22;37.03;;;27.20;;
38785;SDS011;24535;45.508;12.252;2023-12-29T13:26:50;33.33;;;26.30;;
38785;SDS011;24535;45.508;12.252;2023-12-29T13:29:20;34.63;;;27.08;;
38785;SDS011;24535;45.508;12.252;2023-12-29T13:31:55;38.25;;;28.45;;
38785;SDS011;24535;45.508;12.252;2023-12-29T13:34:28;34.85;;;26.75;;
38785;SDS011;24535;45.508;12.252;2023-12-29T13:39:59;33.35;;;26.58;;
38785;SDS011;24535;45.508;12.252;2023-12-29T13:42:35;32.20;;;25.55;;
38785;SDS011;24535;45.508;12.252;2023-12-29T13:45:24;30.63;;;24.10;;
38785;SDS011;24535;45.508;12.252;2023-12-29T13:48:20;31.83;;;24.77;;
38785;SDS011;24535;45.508;12.252;2023-12-29T13:50:49;30.83;;;24.80;;
38785;SDS011;24535;45.508;12.252;2023-12-29T13:53:31;37.60;;;24.35;;
38785;SDS011;24535;45.508;12.252;2023-12-29T13:59:38;30.60;;;23.58;;
38785;SDS011;24535;45.508;12.252;2023-12-29T14:05:23;30.65;;;23.98;;
38785;SDS011;24535;45.508;12.252;2023-12-29T14:13:14;32.17;;;23.80;;
38785;SDS011;24535;45.508;12.252;2023-12-29T14:41:42;28.45;;;22.38;;
38785;SDS011;24535;45.508;12.252;2023-12-29T15:04:39;30.88;;;22.40;;
38785;SDS011;24535;45.508;12.252;2023-12-29T16:20:05;33.13;;;25.98;;
38785;SDS011;24535;45.508;12.252;2023-12-29T16:25:33;37.85;;;24.98;;
38785;SDS011;24535;45.508;12.252;2023-12-29T17:12:24;35.78;;;27.35;;
38785;SDS011;24535;45.508;12.252;2023-12-29T20:21:25;61.38;;;46.97;;
38785;SDS011;24535;45.508;12.252;2023-12-29T20:27:50;66.13;;;47.03;;
38785;SDS011;24535;45.508;12.252;2023-12-29T20:30:16;72.38;;;46.30;;
38785;SDS011;24535;45.508;12.252;2023-12-29T20:32:42;71.90;;;46.45;;
38785;SDS011;24535;45.508;12.252;2023-12-29T20:35:08;66.78;;;47.67;;
38785;SDS011;24535;45.508;12.252;2023-12-29T20:37:33;62.95;;;44.78;;
38785;SDS011;24535;45.508;12.252;2023-12-29T20:39:59;63.83;;;45.22;;
38785;SDS011;24535;45.508;12.252;2023-12-29T20:50:11;66.65;;;45.33;;
38785;SDS011;24535;45.508;12.252;2023-12-29T21:09:59;60.45;;;44.90;;
38785;SDS011;24535;45.508;12.252;2023-12-29T21:32:05;58.88;;;41.60;;
38785;SDS011;24535;45.508;12.252;2023-12-29T21:34:31;55.40;;;40.95;;
38785;SDS011;24535;45.508;12.252;2023-12-29T21:36:56;62.78;;;44.08;;
38785;SDS011;24535;45.508;12.252;2023-12-29T21:39:25;65.07;;;43.42;;
38785;SDS011;24535;45.508;12.252;2023-12-29T21:41:50;60.08;;;42.35;;
38785;SDS011;24535;45.508;12.252;2023-12-29T21:44:19;62.63;;;43.35;;
38785;SDS011;24535;45.508;12.252;2023-12-29T21:46:45;57.83;;;42.88;;
38785;SDS011;24535;45.508;12.252;2023-12-29T21:49:10;58.47;;;41.42;;
38785;SDS011;24535;45.508;12.252;2023-12-29T21:51:35;58.75;;;41.22;;
38785;SDS011;24535;45.508;12.252;2023-12-29T21:54:01;56.08;;;42.72;;
38785;SDS011;24535;45.508;12.252;2023-12-29T21:56:26;60.50;;;42.47;;
38785;SDS011;24535;45.508;12.252;2023-12-29T21:58:52;55.55;;;40.97;;
38785;SDS011;24535;45.508;12.252;2023-12-29T22:01:33;56.13;;;41.42;;
38785;SDS011;24535;45.508;12.252;2023-12-29T22:04:02;56.50;;;41.97;;
38785;SDS011;24535;45.508;12.252;2023-12-29T22:06:31;61.42;;;43.10;;
38785;SDS011;24535;45.508;12.252;2023-12-29T22:08:57;55.30;;;39.20;;
38785;SDS011;24535;45.508;12.252;2023-12-29T22:11:23;58.38;;;39.17;;
38785;SDS011;24535;45.508;12.252;2023-12-29T22:13:49;55.85;;;41.17;;
38785;SDS011;24535;45.508;12.252;2023-12-29T22:16:15;54.90;;;41.58;;
38785;SDS011;24535;45.508;12.252;2023-12-29T22:18:40;53.30;;;39.72;;
38785;SDS011;24535;45.508;12.252;2023-12-29T22:21:06;56.03;;;40.30;;
38785;SDS011;24535;45.508;12.252;2023-12-29T22:23:32;57.15;;;39.40;;
38785;SDS011;24535;45.508;12.252;2023-12-29T22:25:58;59.40;;;42.75;;
38785;SDS011;24535;45.508;12.252;2023-12-29T22:28:23;54.75;;;39.13;;
38785;SDS011;24535;45.508;12.252;2023-12-29T22:30:49;57.42;;;41.00;;
38785;SDS011;24535;45.508;12.252;2023-12-29T22:33:14;60.33;;;41.33;;
38785;SDS011;24535;45.508;12.252;2023-12-29T22:35:40;55.88;;;39.47;;
38785;SDS011;24535;45.508;12.252;2023-12-29T22:38:05;56.03;;;38.95;;
38785;SDS011;24535;45.508;12.252;2023-12-29T22:40:30;52.20;;;37.92;;
38785;SDS011;24535;45.508;12.252;2023-12-29T22:42:58;56.35;;;40.90;;
38785;SDS011;24535;45.508;12.252;2023-12-29T22:45:24;54.63;;;39.97;;
38785;SDS011;24535;45.508;12.252;2023-12-29T22:47:51;56.40;;;39.30;;
38785;SDS011;24535;45.508;12.252;2023-12-29T22:50:16;57.55;;;41.60;;
38785;SDS011;24535;45.508;12.252;2023-12-29T22:52:42;56.30;;;39.65;;
38785;SDS011;24535;45.508;12.252;2023-12-29T22:55:11;58.78;;;40.65;;
38785;SDS011;24535;45.508;12.252;2023-12-29T22:57:36;58.28;;;39.25;;
38785;SDS011;24535;45.508;12.252;2023-12-29T23:00:02;54.53;;;38.08;;
38785;SDS011;24535;45.508;12.252;2023-12-29T23:02:28;56.75;;;40.33;;
38785;SDS011;24535;45.508;12.252;2023-12-29T23:05:07;56.25;;;39.30;;
38785;SDS011;24535;45.508;12.252;2023-12-29T23:07:33;56.50;;;38.58;;
38785;SDS011;24535;45.508;12.252;2023-12-29T23:09:59;52.97;;;38.80;;
38785;SDS011;24535;45.508;12.252;2023-12-29T23:12:24;55.75;;;38.42;;
38785;SDS011;24535;45.508;12.252;2023-12-29T23:14:50;58.85;;;40.97;;
38785;SDS011;24535;45.508;12.252;2023-12-29T23:17:15;50.20;;;37.95;;
38785;SDS011;24535;45.508;12.252;2023-12-29T23:19:42;54.95;;;39.72;;
38785;SDS011;24535;45.508;12.252;2023-12-29T23:22:09;53.42;;;38.22;;
38785;SDS011;24535;45.508;12.252;2023-12-29T23:24:35;49.78;;;39.05;;
38785;SDS011;24535;45.508;12.252;2023-12-29T23:27:02;55.28;;;38.90;;
38785;SDS011;24535;45.508;12.252;2023-12-29T23:29:31;50.90;;;38.72;;
38785;SDS011;24535;45.508;12.252;2023-12-29T23:31:57;51.10;;;38.42;;
38785;SDS011;24535;45.508;12.252;2023-12-29T23:34:22;53.97;;;40.05;;
38785;SDS011;24535;45.508;12.252;2023-12-29T23:36:47;56.88;;;41.28;;
38785;SDS011;24535;45.508;12.252;2023-12-29T23:39:13;50.70;;;39.38;;
38785;SDS011;24535;45.508;12.252;2023-12-29T23:41:38;56.38;;;38.70;;
38785;SDS011;24535;45.508;12.252;2023-12-29T23:44:04;55.05;;;40.10;;
38785;SDS011;24535;45.508;12.252;2023-12-29T23:46:29;49.90;;;37.83;;
38785;SDS011;24535;45.508;12.252;2023-12-29T23:48:55;58.72;;;39.70;;
38785;SDS011;24535;45.508;12.252;2023-12-29T23:51:20;52.20;;;38.47;;
38785;SDS011;24535;45.508;12.252;2023-12-29T23:53:46;54.40;;;39.58;;
38785;SDS011;24535;45.508;12.252;2023-12-29T23:56:11;52.00;;;37.80;;
38785;SDS011;24535;45.508;12.252;2023-12-29T23:58:38;52.63;;;39.25;;
